createdAt,value
2023-04-24T00:00:18.107Z,55.20
2023-04-24T00:01:21.236Z,55.59
2023-04-24T00:02:24.482Z,56.59
2023-04-24T00:03:28.470Z,57.03
2023-04-24T00:04:32.240Z,57.06
2023-04-24T00:05:34.663Z,56.98
2023-04-24T00:06:39.697Z,57.75
2023-04-24T00:07:43.009Z,57.56
2023-04-24T00:08:45.333Z,58.15
2023-04-24T00:09:48.531Z,58.29
2023-04-24T00:10:53.041Z,57.94
2023-04-24T00:11:56.538Z,57.49
2023-04-24T00:12:59.172Z,58.02
2023-04-24T00:14:01.817Z,58.77
2023-04-24T00:15:05.399Z,58.19
2023-04-24T00:16:08.077Z,58.30
2023-04-24T00:17:11.309Z,57.96
2023-04-24T00:18:13.796Z,57.63
2023-04-24T00:19:16.375Z,57.48
2023-04-24T00:20:19.390Z,58.28
2023-04-24T00:21:22.466Z,58.81
2023-04-24T00:22:25.788Z,58.52
2023-04-24T00:23:28.548Z,57.56
2023-04-24T00:24:31.176Z,56.22
2023-04-24T00:25:34.595Z,55.83
2023-04-24T00:26:37.105Z,55.90
2023-04-24T00:27:39.341Z,57.42
2023-04-24T00:28:41.966Z,57.13
2023-04-24T00:29:45.443Z,56.66
2023-04-24T00:30:48.083Z,56.55
2023-04-24T00:31:50.753Z,57.16
2023-04-24T00:32:53.301Z,56.99
2023-04-24T00:33:55.935Z,57.16
2023-04-24T00:34:58.247Z,56.82
2023-04-24T00:36:01.109Z,55.68
2023-04-24T00:37:03.427Z,55.34
2023-04-24T00:38:05.703Z,56.27
2023-04-24T00:39:10.714Z,55.82
2023-04-24T00:40:13.614Z,55.44
2023-04-24T00:41:15.925Z,55.46
2023-04-24T00:42:18.174Z,55.46
2023-04-24T00:43:21.126Z,56.13
2023-04-24T00:44:24.917Z,56.61
2023-04-24T00:45:27.416Z,56.12
2023-04-24T00:46:30.083Z,57.17
2023-04-24T00:47:33.847Z,57.86
2023-04-24T00:48:36.613Z,57.28
2023-04-24T00:49:38.852Z,56.90
2023-04-24T00:50:41.451Z,56.80
2023-04-24T00:51:45.483Z,57.68
2023-04-24T00:52:48.870Z,56.92
2023-04-24T00:53:52.415Z,55.75
2023-04-24T00:54:55.489Z,55.46
2023-04-24T00:55:58.598Z,54.00
2023-04-24T00:57:02.959Z,53.58
2023-04-24T00:58:05.730Z,53.18
2023-04-24T00:59:08.395Z,53.01
2023-04-24T01:00:14.100Z,53.01
2023-04-24T01:01:17.628Z,53.85
2023-04-24T01:02:21.569Z,52.19
2023-04-24T01:03:26.993Z,51.97
2023-04-24T01:04:29.716Z,51.84
2023-04-24T01:05:33.844Z,51.30
2023-04-24T01:06:42.947Z,51.08
2023-04-24T01:07:48.620Z,51.14
2023-04-24T01:08:50.896Z,52.15
2023-04-24T01:09:53.402Z,51.84
2023-04-24T01:10:57.441Z,51.61
2023-04-24T01:12:01.515Z,51.26
2023-04-24T01:13:04.933Z,51.36
2023-04-24T01:14:07.504Z,51.60
2023-04-24T01:15:10.716Z,51.74
2023-04-24T01:16:14.608Z,51.68
2023-04-24T01:17:17.137Z,51.99
2023-04-24T01:18:19.572Z,52.46
2023-04-24T01:19:21.843Z,53.80
2023-04-24T01:20:26.672Z,54.04
2023-04-24T01:21:30.964Z,52.95
2023-04-24T01:22:36.127Z,52.87
2023-04-24T01:23:39.286Z,52.02
2023-04-24T01:24:43.056Z,52.30
2023-04-24T01:25:48.706Z,51.26
2023-04-24T01:26:51.129Z,51.39
2023-04-24T01:27:55.277Z,51.09
2023-04-24T01:28:58.265Z,51.03
2023-04-24T01:30:00.931Z,51.26
2023-04-24T01:31:05.388Z,50.91
2023-04-24T01:32:07.770Z,50.02
2023-04-24T01:33:10.794Z,50.02
2023-04-24T01:34:15.024Z,49.50
2023-04-24T01:35:17.315Z,50.29
2023-04-24T01:36:20.512Z,49.80
2023-04-24T01:37:22.897Z,50.10
2023-04-24T01:38:25.405Z,52.08
2023-04-24T01:39:29.000Z,50.01
2023-04-24T01:40:31.692Z,50.47
2023-04-24T01:41:35.438Z,51.89
2023-04-24T01:42:37.898Z,52.49
2023-04-24T01:43:40.744Z,52.15
2023-04-24T01:44:43.531Z,52.15
2023-04-24T01:45:45.781Z,49.50
2023-04-24T01:46:48.238Z,51.23
2023-04-24T01:47:51.424Z,50.93
2023-04-24T01:48:54.701Z,50.56
2023-04-24T01:49:57.287Z,50.78
2023-04-24T01:51:00.233Z,50.46
2023-04-24T01:52:02.640Z,50.46
2023-04-24T01:53:08.179Z,50.42
2023-04-24T01:54:12.800Z,51.29
2023-04-24T01:55:15.222Z,51.19
2023-04-24T01:56:18.059Z,50.28
2023-04-24T01:57:20.541Z,49.34
2023-04-24T01:58:23.480Z,49.85
2023-04-24T01:59:27.916Z,50.01
2023-04-24T02:00:31.040Z,50.44
2023-04-24T02:01:36.998Z,50.06
2023-04-24T02:02:41.521Z,50.84
2023-04-24T02:03:44.156Z,50.08
2023-04-24T02:04:46.634Z,50.19
2023-04-24T02:05:49.070Z,50.26
2023-04-24T02:06:51.611Z,50.23
2023-04-24T02:07:53.717Z,50.85
2023-04-24T02:08:55.873Z,50.58
2023-04-24T02:09:59.058Z,50.04
2023-04-24T02:11:02.780Z,50.11
2023-04-24T02:12:06.936Z,49.92
2023-04-24T02:13:09.610Z,50.43
2023-04-24T02:14:12.263Z,50.48
2023-04-24T02:15:16.008Z,50.48
2023-04-24T02:16:19.850Z,50.65
2023-04-24T02:17:23.057Z,50.74
2023-04-24T02:18:25.630Z,50.68
2023-04-24T02:19:27.938Z,50.99
2023-04-24T02:20:30.777Z,50.99
2023-04-24T02:21:33.542Z,50.83
2023-04-24T02:22:35.664Z,50.86
2023-04-24T02:23:37.786Z,50.78
2023-04-24T02:24:41.072Z,50.96
2023-04-24T02:25:43.303Z,51.17
2023-04-24T02:26:45.618Z,51.17
2023-04-24T02:27:47.727Z,51.21
2023-04-24T02:28:50.156Z,50.93
2023-04-24T02:29:52.451Z,50.39
2023-04-24T02:30:54.946Z,50.38
2023-04-24T02:31:58.358Z,50.64
2023-04-24T02:33:00.717Z,50.13
2023-04-24T02:34:03.531Z,50.03
2023-04-24T02:35:06.747Z,49.72
2023-04-24T02:36:09.409Z,49.38
2023-04-24T02:37:12.229Z,48.75
2023-04-24T02:38:14.400Z,49.05
2023-04-24T02:39:19.213Z,48.73
2023-04-24T02:40:21.404Z,48.98
2023-04-24T02:41:23.504Z,48.58
2023-04-24T02:42:25.757Z,47.99
2023-04-24T02:43:28.906Z,48.04
2023-04-24T02:44:31.415Z,48.20
2023-04-24T02:45:35.708Z,48.15
2023-04-24T02:46:38.532Z,46.88
2023-04-24T02:47:40.867Z,46.95
2023-04-24T02:48:43.148Z,47.21
2023-04-24T02:49:45.515Z,46.95
2023-04-24T02:50:48.251Z,46.68
2023-04-24T02:51:50.706Z,47.13
2023-04-24T02:52:53.244Z,47.68
2023-04-24T02:53:56.157Z,47.44
2023-04-24T02:54:59.679Z,47.37
2023-04-24T02:56:03.167Z,47.84
2023-04-24T02:57:05.664Z,48.07
2023-04-24T02:58:08.406Z,47.98
2023-04-24T02:59:10.980Z,48.14
2023-04-24T03:00:14.686Z,48.36
2023-04-24T03:01:18.328Z,47.98
2023-04-24T03:02:21.263Z,48.22
2023-04-24T03:03:24.400Z,48.58
2023-04-24T03:04:27.006Z,48.65
2023-04-24T03:05:29.253Z,48.61
2023-04-24T03:06:33.165Z,48.79
2023-04-24T03:07:35.601Z,48.88
2023-04-24T03:08:37.962Z,49.21
2023-04-24T03:09:40.886Z,49.53
2023-04-24T03:10:46.267Z,49.57
2023-04-24T03:11:50.836Z,49.48
2023-04-24T03:12:53.961Z,49.54
2023-04-24T03:13:56.260Z,49.83
2023-04-24T03:14:58.404Z,50.55
2023-04-24T03:16:00.787Z,53.47
2023-04-24T03:17:03.713Z,52.60
2023-04-24T03:18:05.850Z,52.60
2023-04-24T03:19:08.752Z,51.97
2023-04-24T03:20:13.180Z,51.91
2023-04-24T03:21:17.037Z,52.12
2023-04-24T03:22:20.333Z,51.66
2023-04-24T03:23:23.277Z,51.79
2023-04-24T03:24:27.457Z,51.46
2023-04-24T03:25:30.541Z,51.54
2023-04-24T03:26:34.457Z,51.62
2023-04-24T03:27:39.611Z,51.95
2023-04-24T03:28:43.674Z,51.98
2023-04-24T03:29:45.913Z,51.99
2023-04-24T03:30:48.593Z,52.10
2023-04-24T03:31:51.465Z,52.22
2023-04-24T03:32:55.495Z,52.36
2023-04-24T03:33:59.810Z,52.57
2023-04-24T03:35:03.051Z,52.67
2023-04-24T03:36:06.069Z,52.83
2023-04-24T03:37:10.079Z,52.76
2023-04-24T03:38:14.005Z,52.99
2023-04-24T03:39:33.462Z,53.01
2023-04-24T03:40:36.209Z,53.14
2023-04-24T03:41:40.590Z,53.17
2023-04-24T03:42:44.974Z,53.31
2023-04-24T03:43:47.382Z,53.08
2023-04-24T03:44:51.085Z,53.23
2023-04-24T03:45:54.909Z,53.95
2023-04-24T03:46:59.007Z,53.95
2023-04-24T03:48:02.360Z,53.71
2023-04-24T03:49:05.827Z,54.69
2023-04-24T03:50:12.956Z,56.09
2023-04-24T03:51:15.294Z,56.56
2023-04-24T03:52:19.682Z,56.68
2023-04-24T03:53:22.218Z,57.59
2023-04-24T03:54:24.744Z,58.15
2023-04-24T03:55:28.100Z,58.18
2023-04-24T03:56:30.386Z,59.00
2023-04-24T03:57:32.848Z,58.47
2023-04-24T03:58:40.711Z,59.04
2023-04-24T03:59:43.326Z,58.63
2023-04-24T04:00:48.514Z,59.17
2023-04-24T04:01:55.527Z,59.40
2023-04-24T04:02:58.476Z,58.73
2023-04-24T04:04:01.830Z,57.88
2023-04-24T04:05:05.636Z,59.80
2023-04-24T04:06:08.310Z,60.65
2023-04-24T04:07:12.696Z,60.19
2023-04-24T04:08:15.579Z,60.14
2023-04-24T04:09:17.839Z,60.45
2023-04-24T04:10:21.811Z,60.58
2023-04-24T04:11:24.827Z,60.79
2023-04-24T04:12:27.235Z,61.24
2023-04-24T04:13:29.969Z,60.57
2023-04-24T04:14:33.168Z,60.07
2023-04-24T04:15:36.174Z,59.60
2023-04-24T04:16:39.104Z,59.98
2023-04-24T04:17:41.926Z,60.43
2023-04-24T04:18:45.506Z,61.02
2023-04-24T04:19:48.272Z,61.18
2023-04-24T04:20:50.910Z,61.91
2023-04-24T04:21:55.322Z,62.42
2023-04-24T04:22:59.423Z,61.90
2023-04-24T04:24:06.001Z,61.44
2023-04-24T04:25:12.336Z,61.68
2023-04-24T04:26:15.164Z,61.72
2023-04-24T04:27:35.750Z,61.68
2023-04-24T04:28:40.074Z,61.29
2023-04-24T04:29:42.643Z,60.40
2023-04-24T04:30:47.528Z,59.74
2023-04-24T04:31:50.118Z,58.99
2023-04-24T04:32:52.966Z,58.13
2023-04-24T04:33:56.324Z,57.25
2023-04-24T04:34:59.082Z,57.26
2023-04-24T04:36:03.480Z,56.84
2023-04-24T04:37:06.725Z,56.52
2023-04-24T04:38:17.860Z,56.35
2023-04-24T04:39:22.048Z,56.21
2023-04-24T04:40:28.347Z,55.54
2023-04-24T04:41:32.850Z,54.88
2023-04-24T04:42:36.049Z,54.76
2023-04-24T04:43:40.711Z,54.81
2023-04-24T04:44:45.242Z,54.66
2023-04-24T04:45:50.183Z,54.29
2023-04-24T04:46:57.599Z,54.22
2023-04-24T04:48:02.802Z,54.17
2023-04-24T04:49:06.711Z,54.03
2023-04-24T04:50:10.941Z,53.93
2023-04-24T04:51:13.457Z,52.90
2023-04-24T04:52:17.724Z,52.19
2023-04-24T04:53:20.350Z,51.32
2023-04-24T04:54:22.775Z,51.03
2023-04-24T04:55:24.919Z,50.61
2023-04-24T04:56:35.283Z,50.46
2023-04-24T04:57:39.895Z,50.11
2023-04-24T04:58:43.407Z,49.88
2023-04-24T04:59:47.679Z,49.75
2023-04-24T05:00:53.699Z,49.62
2023-04-24T05:02:03.894Z,49.52
2023-04-24T05:03:20.082Z,49.38
2023-04-24T05:04:11.406Z,49.31
2023-04-24T05:05:14.311Z,49.38
2023-04-24T05:06:17.432Z,49.30
2023-04-24T05:07:20.082Z,49.55
2023-04-24T05:08:27.611Z,49.25
2023-04-24T05:09:29.865Z,50.04
2023-04-24T05:10:34.894Z,50.25
2023-04-24T05:11:37.237Z,50.30
2023-04-24T05:12:39.362Z,50.39
2023-04-24T05:13:42.564Z,51.13
2023-04-24T05:14:46.719Z,51.69
2023-04-24T05:15:50.185Z,51.68
2023-04-24T05:16:53.940Z,51.87
2023-04-24T05:17:59.374Z,51.94
2023-04-24T05:19:02.193Z,51.89
2023-04-24T05:20:09.353Z,52.37
2023-04-24T05:21:11.668Z,52.24
2023-04-24T05:22:15.527Z,52.22
2023-04-24T05:23:20.044Z,52.46
2023-04-24T05:24:22.916Z,52.87
2023-04-24T05:25:35.508Z,52.87
2023-04-24T05:26:39.562Z,52.93
2023-04-24T05:27:44.612Z,53.99
2023-04-24T05:28:48.683Z,54.69
2023-04-24T05:29:51.611Z,55.95
2023-04-24T05:30:56.205Z,56.44
2023-04-24T05:32:01.086Z,56.50
2023-04-24T05:33:04.598Z,56.13
2023-04-24T05:34:09.902Z,56.91
2023-04-24T05:35:14.399Z,56.87
2023-04-24T05:36:17.416Z,56.89
2023-04-24T05:37:20.403Z,57.41
2023-04-24T05:38:23.489Z,57.72
2023-04-24T05:39:25.856Z,57.75
2023-04-24T05:40:29.633Z,56.76
2023-04-24T05:41:32.015Z,56.71
2023-04-24T05:42:34.357Z,56.18
2023-04-24T05:43:36.757Z,56.01
2023-04-24T05:44:38.895Z,55.96
2023-04-24T05:45:41.116Z,56.38
2023-04-24T05:46:44.585Z,56.21
2023-04-24T05:47:48.402Z,56.03
2023-04-24T05:48:50.704Z,55.63
2023-04-24T05:49:53.820Z,55.67
2023-04-24T05:50:56.387Z,55.47
2023-04-24T05:51:59.507Z,55.43
2023-04-24T05:53:07.480Z,55.22
2023-04-24T05:54:12.516Z,54.98
2023-04-24T05:55:18.096Z,54.67
2023-04-24T05:56:21.596Z,54.23
2023-04-24T05:57:26.203Z,54.04
2023-04-24T05:58:30.398Z,54.22
2023-04-24T05:59:32.869Z,54.08
2023-04-24T06:00:36.182Z,54.10
2023-04-24T06:01:41.073Z,53.91
2023-04-24T06:02:48.398Z,54.16
2023-04-24T06:03:52.084Z,54.04
2023-04-24T06:04:54.641Z,54.13
2023-04-24T06:05:57.324Z,53.88
2023-04-24T06:07:00.439Z,53.41
2023-04-24T06:08:03.260Z,53.26
2023-04-24T06:09:08.123Z,52.98
2023-04-24T06:10:11.082Z,52.71
2023-04-24T06:11:15.519Z,52.61
2023-04-24T06:12:18.081Z,52.40
2023-04-24T06:13:25.352Z,52.26
2023-04-24T06:14:29.521Z,51.68
2023-04-24T06:15:52.105Z,51.73
2023-04-24T06:16:56.296Z,51.60
2023-04-24T06:18:00.644Z,50.90
2023-04-24T06:19:03.582Z,50.85
2023-04-24T06:20:08.456Z,50.32
2023-04-24T06:21:10.915Z,50.04
2023-04-24T06:22:13.664Z,49.44
2023-04-24T06:23:17.289Z,49.31
2023-04-24T06:24:19.577Z,49.25
2023-04-24T06:25:21.816Z,49.06
2023-04-24T06:26:27.385Z,48.78
2023-04-24T06:27:29.660Z,48.77
2023-04-24T06:28:32.767Z,48.34
2023-04-24T06:29:37.277Z,48.05
2023-04-24T06:30:39.783Z,47.97
2023-04-24T06:31:42.256Z,47.78
2023-04-24T06:32:46.347Z,46.81
2023-04-24T06:33:50.919Z,46.61
2023-04-24T06:34:54.084Z,46.87
2023-04-24T06:35:57.291Z,46.53
2023-04-24T06:37:00.665Z,46.76
2023-04-24T06:38:02.966Z,46.36
2023-04-24T06:39:05.694Z,46.47
2023-04-24T06:40:10.870Z,46.69
2023-04-24T06:41:13.598Z,46.35
2023-04-24T06:42:16.335Z,45.96
2023-04-24T06:43:20.842Z,45.86
2023-04-24T06:44:23.420Z,46.16
2023-04-24T06:45:25.570Z,45.19
2023-04-24T06:46:28.498Z,44.38
2023-04-24T06:47:30.945Z,45.43
2023-04-24T06:48:33.830Z,44.22
2023-04-24T06:49:39.554Z,43.94
2023-04-24T06:50:41.955Z,43.87
2023-04-24T06:51:44.420Z,42.95
2023-04-24T06:52:46.769Z,43.05
2023-04-24T06:53:50.209Z,43.23
2023-04-24T06:54:53.077Z,42.90
2023-04-24T06:55:56.594Z,42.80
2023-04-24T06:57:01.292Z,43.00
2023-04-24T06:58:03.813Z,42.64
2023-04-24T06:59:06.373Z,42.53
2023-04-24T07:00:10.618Z,42.46
2023-04-24T07:01:13.758Z,42.30
2023-04-24T07:02:16.002Z,42.12
2023-04-24T07:03:18.667Z,41.89
2023-04-24T07:04:21.631Z,42.55
2023-04-24T07:05:25.052Z,42.14
2023-04-24T07:06:27.712Z,41.92
2023-04-24T07:07:31.732Z,41.37
2023-04-24T07:08:34.339Z,41.79
2023-04-24T07:09:38.951Z,41.81
2023-04-24T07:10:41.993Z,42.01
2023-04-24T07:11:45.186Z,42.27
2023-04-24T07:12:47.984Z,41.71
2023-04-24T07:13:50.570Z,41.56
2023-04-24T07:14:54.158Z,40.87
2023-04-24T07:15:57.116Z,40.35
2023-04-24T07:17:00.185Z,39.82
2023-04-24T07:18:05.479Z,40.72
2023-04-24T07:19:07.082Z,38.93
2023-04-24T07:20:11.167Z,39.04
2023-04-24T07:21:13.568Z,39.25
2023-04-24T07:22:17.284Z,38.23
2023-04-24T07:23:20.162Z,39.13
2023-04-24T07:24:23.909Z,39.08
2023-04-24T07:25:27.340Z,38.53
2023-04-24T07:26:32.041Z,37.62
2023-04-24T07:27:35.249Z,38.02
2023-04-24T07:28:37.627Z,38.58
2023-04-24T07:29:40.726Z,38.54
2023-04-24T07:30:43.120Z,38.90
2023-04-24T07:31:45.595Z,37.88
2023-04-24T07:32:47.806Z,38.78
2023-04-24T07:33:50.920Z,38.17
2023-04-24T07:34:53.224Z,38.27
2023-04-24T07:35:56.876Z,38.10
2023-04-24T07:36:59.860Z,38.06
2023-04-24T07:38:07.918Z,38.60
2023-04-24T07:39:10.303Z,38.12
2023-04-24T07:40:15.317Z,38.01
2023-04-24T07:41:18.725Z,38.51
2023-04-24T07:42:21.083Z,36.95
2023-04-24T07:43:24.750Z,37.90
2023-04-24T07:44:27.091Z,38.59
2023-04-24T07:45:29.338Z,38.01
2023-04-24T07:46:32.128Z,37.79
2023-04-24T07:47:36.055Z,38.65
2023-04-24T07:48:38.398Z,37.19
2023-04-24T07:49:42.187Z,37.05
2023-04-24T07:50:45.509Z,37.18
2023-04-24T07:51:48.287Z,43.04
2023-04-24T07:52:50.682Z,46.36
2023-04-24T07:53:52.784Z,44.02
2023-04-24T07:54:58.036Z,48.11
2023-04-24T07:56:00.796Z,42.59
2023-04-24T07:57:03.698Z,42.55
2023-04-24T07:58:06.421Z,43.47
2023-04-24T07:59:10.499Z,46.71
2023-04-24T08:00:14.007Z,43.74
2023-04-24T08:01:18.592Z,43.24
2023-04-24T08:02:23.710Z,40.49
2023-04-24T08:03:26.874Z,41.41
2023-04-24T08:04:30.864Z,41.62
2023-04-24T08:05:34.088Z,40.24
2023-04-24T08:06:36.639Z,48.38
2023-04-24T08:07:39.207Z,45.52
2023-04-24T08:08:41.551Z,39.44
2023-04-24T08:09:44.573Z,44.90
2023-04-24T08:10:48.832Z,42.58
2023-04-24T08:11:51.264Z,41.09
2023-04-24T08:12:53.565Z,41.89
2023-04-24T08:13:56.742Z,37.64
2023-04-24T08:14:58.988Z,42.69
2023-04-24T08:16:01.592Z,43.66
2023-04-24T08:17:05.395Z,43.94
2023-04-24T08:18:08.099Z,43.29
2023-04-24T08:19:10.769Z,45.33
2023-04-24T08:20:14.938Z,39.41
2023-04-24T08:21:19.155Z,39.67
2023-04-24T08:22:21.326Z,40.31
2023-04-24T08:23:24.116Z,40.35
2023-04-24T08:24:28.228Z,42.54
2023-04-24T08:25:30.850Z,38.47
2023-04-24T08:26:33.256Z,40.30
2023-04-24T08:27:37.097Z,36.42
2023-04-24T08:28:39.785Z,39.46
2023-04-24T08:29:43.254Z,39.09
2023-04-24T08:30:45.915Z,39.44
2023-04-24T08:31:48.141Z,39.91
2023-04-24T08:32:50.309Z,42.10
2023-04-24T08:33:52.518Z,39.99
2023-04-24T08:34:57.123Z,39.46
2023-04-24T08:36:01.907Z,37.85
2023-04-24T08:37:04.951Z,40.24
2023-04-24T08:38:08.352Z,37.34
2023-04-24T08:39:10.716Z,36.22
2023-04-24T08:40:16.038Z,36.74
2023-04-24T08:41:19.437Z,40.90
2023-04-24T08:42:24.646Z,42.30
2023-04-24T08:43:27.500Z,42.12
2023-04-24T08:44:29.825Z,37.58
2023-04-24T08:45:33.545Z,36.92
2023-04-24T08:46:36.666Z,38.14
2023-04-24T08:47:40.694Z,40.65
2023-04-24T08:48:44.158Z,37.25
2023-04-24T08:49:49.155Z,40.51
2023-04-24T08:50:52.201Z,32.56
2023-04-24T08:51:54.486Z,37.29
2023-04-24T08:52:58.015Z,35.36
2023-04-24T08:54:01.313Z,40.70
2023-04-24T08:55:04.707Z,37.73
2023-04-24T08:56:07.935Z,39.80
2023-04-24T08:57:12.560Z,36.84
2023-04-24T08:58:17.051Z,33.21
2023-04-24T08:59:21.235Z,37.34
2023-04-24T09:00:23.893Z,36.14
2023-04-24T09:01:27.530Z,34.94
2023-04-24T09:02:31.235Z,36.12
2023-04-24T09:03:35.380Z,33.46
2023-04-24T09:04:40.062Z,35.70
2023-04-24T09:05:46.539Z,36.06
2023-04-24T09:06:55.065Z,33.68
2023-04-24T09:07:57.777Z,35.06
2023-04-24T09:09:02.233Z,31.60
2023-04-24T09:10:05.521Z,33.32
2023-04-24T09:11:08.996Z,36.68
2023-04-24T09:12:12.177Z,32.00
2023-04-24T09:13:15.259Z,33.62
2023-04-24T09:14:19.451Z,38.87
2023-04-24T09:15:21.921Z,35.85
2023-04-24T09:16:26.796Z,38.88
2023-04-24T09:17:29.389Z,35.78
2023-04-24T09:18:33.088Z,39.61
2023-04-24T09:19:35.546Z,32.90
2023-04-24T09:21:02.399Z,32.29
2023-04-24T09:22:08.913Z,35.12
2023-04-24T09:23:13.303Z,31.64
2023-04-24T09:24:22.655Z,34.45
2023-04-24T09:25:33.900Z,31.58
2023-04-24T09:26:37.041Z,33.29
2023-04-24T09:27:47.900Z,34.54
2023-04-24T09:28:51.387Z,39.73
2023-04-24T09:29:57.403Z,37.62
2023-04-24T09:31:10.724Z,33.60
2023-04-24T09:32:27.105Z,36.74
2023-04-24T09:33:30.768Z,36.12
2023-04-24T09:34:33.073Z,32.89
2023-04-24T09:35:36.812Z,33.75
2023-04-24T09:36:42.212Z,33.62
2023-04-24T09:37:46.236Z,34.58
2023-04-24T09:38:48.605Z,35.15
2023-04-24T09:40:00.885Z,36.92
2023-04-24T09:41:06.260Z,30.99
2023-04-24T09:42:09.630Z,35.44
2023-04-24T09:43:13.799Z,32.58
2023-04-24T09:44:20.671Z,37.10
2023-04-24T09:45:25.249Z,35.94
2023-04-24T09:46:34.864Z,34.12
2023-04-24T09:47:39.500Z,33.54
2023-04-24T09:48:41.795Z,36.56
2023-04-24T09:49:44.325Z,32.21
2023-04-24T09:50:47.824Z,32.04
2023-04-24T09:51:50.438Z,35.74
2023-04-24T09:53:01.731Z,34.20
2023-04-24T09:54:07.727Z,33.73
2023-04-24T09:55:17.243Z,32.70
2023-04-24T09:56:20.696Z,34.88
2023-04-24T09:57:23.074Z,36.32
2023-04-24T09:58:27.154Z,33.39
2023-04-24T09:59:30.606Z,34.63
2023-04-24T10:00:34.480Z,33.58
2023-04-24T10:01:38.686Z,36.08
2023-04-24T10:02:41.379Z,33.64
2023-04-24T10:03:45.160Z,35.97
2023-04-24T10:04:59.486Z,37.04
2023-04-24T10:06:05.651Z,34.72
2023-04-24T10:07:10.418Z,33.86
2023-04-24T10:08:14.009Z,37.88
2023-04-24T10:09:18.173Z,36.28
2023-04-24T10:10:21.486Z,33.98
2023-04-24T10:11:24.696Z,34.88
2023-04-24T10:12:29.399Z,35.26
2023-04-24T10:13:33.380Z,34.26
2023-04-24T10:14:36.514Z,35.87
2023-04-24T10:15:41.193Z,33.88
2023-04-24T10:16:46.841Z,36.35
2023-04-24T10:17:53.627Z,35.54
2023-04-24T10:18:57.864Z,34.09
2023-04-24T10:20:02.216Z,33.95
2023-04-24T10:21:05.188Z,34.67
2023-04-24T10:22:08.972Z,34.92
2023-04-24T10:23:12.533Z,37.93
2023-04-24T10:24:16.995Z,33.58
2023-04-24T10:25:22.100Z,32.76
2023-04-24T10:26:26.736Z,33.82
2023-04-24T10:27:31.214Z,35.01
2023-04-24T10:28:36.994Z,31.37
2023-04-24T10:29:40.781Z,32.08
2023-04-24T10:30:45.063Z,34.41
2023-04-24T10:31:48.328Z,35.06
2023-04-24T10:32:51.812Z,32.69
2023-04-24T10:33:55.126Z,32.83
2023-04-24T10:34:58.224Z,35.28
2023-04-24T10:36:02.072Z,32.23
2023-04-24T10:37:04.528Z,31.59
2023-04-24T10:38:11.018Z,31.25
2023-04-24T10:39:16.097Z,33.40
2023-04-24T10:40:21.556Z,35.28
2023-04-24T10:41:26.419Z,34.82
2023-04-24T10:42:29.822Z,32.63
2023-04-24T10:43:34.239Z,34.44
2023-04-24T10:44:37.452Z,33.44
2023-04-24T10:45:40.474Z,31.99
2023-04-24T10:46:48.770Z,31.26
2023-04-24T10:48:13.107Z,33.24
2023-04-24T10:49:16.172Z,34.94
2023-04-24T10:50:20.312Z,34.68
2023-04-24T10:51:24.400Z,33.57
2023-04-24T10:52:30.332Z,32.18
2023-04-24T10:53:35.584Z,33.62
2023-04-24T10:54:44.154Z,34.15
2023-04-24T10:55:52.388Z,35.54
2023-04-24T10:57:15.219Z,36.11
2023-04-24T10:58:19.984Z,35.65
2023-04-24T10:59:27.956Z,37.26
2023-04-24T11:00:30.847Z,36.04
2023-04-24T11:01:34.687Z,36.96
2023-04-24T11:02:38.798Z,35.07
2023-04-24T11:03:46.704Z,36.76
2023-04-24T11:04:52.214Z,34.16
2023-04-24T11:05:58.772Z,33.71
2023-04-24T11:07:02.897Z,31.63
2023-04-24T11:08:13.313Z,32.72
2023-04-24T11:09:17.360Z,32.44
2023-04-24T11:10:29.038Z,30.72
2023-04-24T11:11:31.740Z,31.72
2023-04-24T11:12:36.629Z,37.50
2023-04-24T11:14:01.043Z,33.08
2023-04-24T11:15:04.451Z,34.12
2023-04-24T11:16:23.315Z,32.39
2023-04-24T11:17:38.273Z,31.68
2023-04-24T11:18:44.622Z,30.90
2023-04-24T11:19:51.007Z,30.94
2023-04-24T11:20:55.705Z,33.55
2023-04-24T11:23:14.784Z,34.53
2023-04-24T11:24:29.566Z,31.33
2023-04-24T11:25:33.251Z,36.05
2023-04-24T11:26:39.993Z,35.10
2023-04-24T11:27:45.256Z,34.62
2023-04-24T11:28:48.835Z,32.69
2023-04-24T11:30:01.158Z,30.92
2023-04-24T11:31:37.498Z,31.10
2023-04-24T11:32:42.313Z,31.34
2023-04-24T11:33:44.979Z,30.59
2023-04-24T11:34:50.197Z,30.16
2023-04-24T11:35:52.961Z,29.56
2023-04-24T11:36:55.569Z,30.21
2023-04-24T11:39:05.779Z,30.15
2023-04-24T11:40:11.202Z,29.19
2023-04-24T11:41:14.437Z,29.67
2023-04-24T11:42:16.826Z,29.73
2023-04-24T11:43:20.356Z,30.06
2023-04-24T11:44:25.397Z,29.84
2023-04-24T11:45:29.803Z,29.89
2023-04-24T11:46:33.677Z,30.19
2023-04-24T11:47:37.522Z,29.37
2023-04-24T11:48:44.148Z,29.56
2023-04-24T11:49:46.776Z,29.64
2023-04-24T11:50:50.641Z,29.62
2023-04-24T11:52:00.488Z,30.02
2023-04-24T11:53:02.623Z,29.76
2023-04-24T11:54:08.220Z,30.35
2023-04-24T11:55:20.412Z,30.43
2023-04-24T11:56:26.367Z,30.77
2023-04-24T11:57:31.607Z,31.36
2023-04-24T11:58:39.138Z,31.02
2023-04-24T11:59:41.761Z,30.23
2023-04-24T12:00:46.436Z,30.21
2023-04-24T12:01:50.554Z,30.32
2023-04-24T12:03:09.153Z,31.10
2023-04-24T12:04:12.718Z,31.15
2023-04-24T12:05:26.818Z,31.34
2023-04-24T12:06:30.848Z,31.05
2023-04-24T12:07:44.454Z,30.82
2023-04-24T12:08:48.510Z,30.82
2023-04-24T12:09:56.986Z,30.62
2023-04-24T12:11:03.043Z,30.52
2023-04-24T12:12:07.359Z,29.99
2023-04-24T12:13:11.854Z,30.34
2023-04-24T12:14:15.236Z,29.41
2023-04-24T12:15:20.777Z,29.79
2023-04-24T12:16:25.541Z,29.51
2023-04-24T12:17:33.536Z,29.20
2023-04-24T12:18:45.166Z,28.49
2023-04-24T12:19:51.012Z,28.66
2023-04-24T12:20:54.179Z,28.33
2023-04-24T12:22:06.181Z,28.14
2023-04-24T12:23:09.237Z,28.51
2023-04-24T12:24:11.771Z,28.95
2023-04-24T12:25:15.845Z,29.00
2023-04-24T12:26:20.331Z,28.91
2023-04-24T12:27:23.384Z,28.79
2023-04-24T12:28:29.857Z,28.46
2023-04-24T12:29:32.453Z,28.89
2023-04-24T12:30:38.619Z,29.05
2023-04-24T12:31:41.056Z,29.15
2023-04-24T12:32:46.677Z,29.38
2023-04-24T12:33:49.264Z,29.15
2023-04-24T12:34:52.417Z,29.70
2023-04-24T12:35:56.860Z,29.80
2023-04-24T12:37:02.968Z,29.94
2023-04-24T12:38:10.919Z,29.92
2023-04-24T12:39:20.559Z,30.61
2023-04-24T12:40:26.442Z,30.27
2023-04-24T12:41:31.883Z,29.79
2023-04-24T12:42:35.463Z,29.66
2023-04-24T12:43:38.427Z,29.03
2023-04-24T12:44:41.547Z,28.97
2023-04-24T12:45:45.732Z,28.51
2023-04-24T12:46:48.172Z,29.04
2023-04-24T12:47:50.617Z,29.38
2023-04-24T12:48:54.497Z,29.72
2023-04-24T12:49:57.366Z,29.48
2023-04-24T12:51:03.106Z,29.94
2023-04-24T12:52:05.764Z,29.95
2023-04-24T12:53:10.595Z,30.50
2023-04-24T12:54:12.994Z,30.37
2023-04-24T12:55:16.235Z,30.63
2023-04-24T12:56:19.152Z,30.80
2023-04-24T12:57:22.390Z,30.47
2023-04-24T12:58:25.042Z,30.36
2023-04-24T12:59:27.537Z,30.61
2023-04-24T13:00:30.367Z,29.38
2023-04-24T13:01:33.670Z,29.01
2023-04-24T13:02:38.073Z,29.11
2023-04-24T13:03:42.109Z,30.06
2023-04-24T13:05:59.735Z,30.22
2023-04-24T13:07:02.573Z,29.95
2023-04-24T13:08:05.971Z,30.04
2023-04-24T13:09:08.402Z,30.09
2023-04-24T13:10:11.840Z,29.38
2023-04-24T13:11:15.206Z,29.84
2023-04-24T13:12:18.759Z,29.08
2023-04-24T13:13:22.611Z,29.50
2023-04-24T13:14:24.985Z,28.87
2023-04-24T13:15:27.351Z,28.68
2023-04-24T13:16:31.621Z,28.16
2023-04-24T13:17:34.066Z,27.75
2023-04-24T13:18:36.472Z,27.81
2023-04-24T13:19:41.726Z,27.81
2023-04-24T13:20:44.957Z,27.28
2023-04-24T13:21:50.379Z,27.98
2023-04-24T13:22:52.761Z,28.38
2023-04-24T13:23:56.246Z,28.83
2023-04-24T13:24:58.662Z,29.53
2023-04-24T13:26:01.742Z,29.70
2023-04-24T13:27:04.672Z,29.44
2023-04-24T13:28:07.858Z,29.50
2023-04-24T13:29:10.963Z,29.31
2023-04-24T13:30:14.550Z,29.78
2023-04-24T13:31:17.343Z,29.61
2023-04-24T13:32:20.352Z,29.61
2023-04-24T13:33:23.508Z,29.66
2023-04-24T13:34:27.536Z,29.32
2023-04-24T13:35:29.920Z,29.46
2023-04-24T13:36:33.408Z,29.85
2023-04-24T13:37:36.257Z,30.12
2023-04-24T13:38:38.565Z,29.82
2023-04-24T13:39:41.855Z,29.76
2023-04-24T13:40:44.863Z,29.20
2023-04-24T13:41:48.655Z,29.31
2023-04-24T13:42:51.729Z,28.27
2023-04-24T13:43:54.447Z,28.07
2023-04-24T13:44:57.202Z,26.66
2023-04-24T13:46:01.700Z,26.28
2023-04-24T13:47:04.504Z,26.89
2023-04-24T13:48:07.072Z,26.95
2023-04-24T13:49:10.551Z,25.92